createdAt,value
2019-03-16T00:00:55.570Z,0
2019-03-16T00:01:57.578Z,0
2019-03-16T00:02:56.751Z,0
2019-03-16T00:03:57.276Z,0
2019-03-16T00:04:57.842Z,0
2019-03-16T00:05:58.411Z,0
2019-03-16T00:06:58.975Z,0
2019-03-16T00:07:59.541Z,0
2019-03-16T00:09:00.108Z,0
2019-03-16T00:10:00.673Z,0
2019-03-16T00:11:01.240Z,0
2019-03-16T00:12:01.950Z,0
2019-03-16T00:13:02.379Z,0
2019-03-16T00:14:02.948Z,0
2019-03-16T00:15:03.516Z,0
2019-03-16T00:16:04.085Z,0
2019-03-16T00:17:04.654Z,0
2019-03-16T00:18:05.221Z,0
2019-03-16T00:19:05.787Z,0
2019-03-16T00:20:06.367Z,0
2019-03-16T00:21:06.941Z,0
2019-03-16T00:22:07.503Z,0
2019-03-16T00:23:08.072Z,0
2019-03-16T00:24:08.637Z,0
2019-03-16T00:25:09.206Z,0
2019-03-16T00:26:09.783Z,0
2019-03-16T00:27:10.361Z,0
2019-03-16T00:28:10.929Z,0
2019-03-16T00:29:11.494Z,0
2019-03-16T00:30:12.062Z,0
2019-03-16T00:31:12.629Z,0
2019-03-16T00:32:13.902Z,0
2019-03-16T00:33:14.481Z,0
2019-03-16T00:34:15.049Z,0
2019-03-16T00:35:15.615Z,0
2019-03-16T00:36:16.183Z,0
2019-03-16T00:37:16.749Z,0
2019-03-16T00:38:17.317Z,0
2019-03-16T00:39:17.947Z,0
2019-03-16T00:40:18.451Z,0
2019-03-16T00:41:19.018Z,0
2019-03-16T00:42:19.585Z,0
2019-03-16T00:43:20.159Z,0
2019-03-16T00:44:20.721Z,0
2019-03-16T00:45:21.297Z,0
2019-03-16T00:46:21.874Z,0
2019-03-16T00:47:22.439Z,0
2019-03-16T00:48:23.004Z,0
2019-03-16T00:49:23.574Z,0
2019-03-16T00:50:24.138Z,0
2019-03-16T00:51:24.705Z,0
2019-03-16T00:52:25.282Z,0
2019-03-16T00:53:25.849Z,0
2019-03-16T00:54:26.418Z,0
2019-03-16T00:55:26.984Z,0
2019-03-16T00:56:27.552Z,0
2019-03-16T00:57:28.119Z,0
2019-03-16T00:58:28.689Z,0
2019-03-16T00:59:29.263Z,0
2019-03-16T01:00:29.830Z,0
2019-03-16T01:01:30.399Z,0
2019-03-16T01:02:32.873Z,0
2019-03-16T01:03:32.527Z,0
2019-03-16T01:04:33.092Z,0
2019-03-16T01:05:33.659Z,0
2019-03-16T01:06:34.224Z,0
2019-03-16T01:07:34.803Z,0
2019-03-16T01:08:35.370Z,0
2019-03-16T01:09:35.938Z,0
2019-03-16T01:10:36.505Z,0
2019-03-16T01:11:37.071Z,0
2019-03-16T01:12:37.640Z,0
2019-03-16T01:13:38.207Z,0
2019-03-16T01:14:38.775Z,0
2019-03-16T01:15:39.352Z,0
2019-03-16T01:16:39.920Z,0
2019-03-16T01:17:40.487Z,0
2019-03-16T01:18:41.054Z,0
2019-03-16T01:19:41.624Z,0
2019-03-16T01:20:42.188Z,0
2019-03-16T01:21:42.841Z,0
2019-03-16T01:22:43.328Z,0
2019-03-16T01:23:43.931Z,0
2019-03-16T01:24:44.475Z,0
2019-03-16T01:25:45.042Z,0
2019-03-16T01:26:45.612Z,0
2019-03-16T01:27:46.176Z,0
2019-03-16T01:28:46.745Z,0
2019-03-16T01:29:47.310Z,0
2019-03-16T01:30:47.880Z,0
2019-03-16T01:31:48.445Z,0
2019-03-16T01:32:49.015Z,0
2019-03-16T01:33:49.578Z,0
2019-03-16T01:34:50.146Z,0
2019-03-16T01:35:50.725Z,0
2019-03-16T01:36:51.293Z,0
2019-03-16T01:37:51.871Z,0
2019-03-16T01:38:52.439Z,0
2019-03-16T01:39:53.003Z,0
2019-03-16T01:40:53.570Z,0
2019-03-16T01:41:54.135Z,0
2019-03-16T01:42:54.709Z,0
2019-03-16T01:43:55.273Z,0
2019-03-16T01:44:55.847Z,0
2019-03-16T01:45:56.425Z,0
2019-03-16T01:46:56.990Z,0
2019-03-16T01:47:57.556Z,0
2019-03-16T01:48:58.122Z,0
2019-03-16T01:49:58.688Z,0
2019-03-16T01:50:59.253Z,0
2019-03-16T01:51:59.820Z,0
2019-03-16T01:53:00.387Z,0
2019-03-16T01:54:00.957Z,0
2019-03-16T01:55:01.532Z,0
2019-03-16T01:56:02.104Z,0
2019-03-16T01:57:02.679Z,0
2019-03-16T01:58:03.246Z,0
2019-03-16T01:59:03.823Z,0
2019-03-16T02:00:04.390Z,0
2019-03-16T02:01:04.959Z,0
2019-03-16T02:02:05.536Z,0
2019-03-16T02:03:06.115Z,0
2019-03-16T02:04:06.682Z,0
2019-03-16T02:05:07.248Z,0
2019-03-16T02:06:07.814Z,0
2019-03-16T02:07:08.393Z,0
2019-03-16T02:08:08.960Z,0
2019-03-16T02:09:09.527Z,0
2019-03-16T02:10:10.094Z,0
2019-03-16T02:11:10.671Z,0
2019-03-16T02:12:11.237Z,0
2019-03-16T02:13:11.818Z,0
2019-03-16T02:14:12.387Z,0
2019-03-16T02:15:12.963Z,0
2019-03-16T02:16:13.530Z,0
2019-03-16T02:17:14.097Z,0
2019-03-16T02:18:14.664Z,0
2019-03-16T02:19:15.233Z,0
2019-03-16T02:20:15.903Z,0
2019-03-16T02:21:16.493Z,0
2019-03-16T02:22:17.046Z,0
2019-03-16T02:23:17.612Z,0
2019-03-16T02:24:18.180Z,0
2019-03-16T02:25:18.745Z,0
2019-03-16T02:26:19.313Z,0
2019-03-16T02:27:19.885Z,0
2019-03-16T02:28:20.447Z,0
2019-03-16T02:29:21.014Z,0
2019-03-16T02:30:21.582Z,0
2019-03-16T02:31:22.146Z,0
2019-03-16T02:32:22.713Z,0
2019-03-16T02:33:23.290Z,0
2019-03-16T02:34:23.858Z,0
2019-03-16T02:35:24.427Z,0
2019-03-16T02:36:24.997Z,0
2019-03-16T02:37:25.574Z,0
2019-03-16T02:38:26.145Z,0
2019-03-16T02:39:26.728Z,0
2019-03-16T02:40:27.300Z,0
2019-03-16T02:41:27.872Z,0
2019-03-16T02:42:28.449Z,0
2019-03-16T02:43:29.016Z,0
2019-03-16T02:44:29.585Z,0
2019-03-16T02:45:30.163Z,0
2019-03-16T02:46:30.743Z,0
2019-03-16T02:47:31.311Z,0
2019-03-16T02:48:31.877Z,0
2019-03-16T02:49:32.459Z,0
2019-03-16T02:50:33.026Z,0
2019-03-16T02:51:33.594Z,0
2019-03-16T02:52:34.176Z,0
2019-03-16T02:53:34.731Z,0
2019-03-16T02:54:35.299Z,0
2019-03-16T02:55:35.868Z,0
2019-03-16T02:56:36.435Z,0
2019-03-16T02:57:37.019Z,0
2019-03-16T02:58:37.603Z,0
2019-03-16T02:59:38.187Z,0
2019-03-16T03:00:38.763Z,0
2019-03-16T03:01:39.327Z,0
2019-03-16T03:02:39.895Z,0
2019-03-16T03:03:40.464Z,0
2019-03-16T03:04:41.030Z,0
2019-03-16T03:05:41.603Z,0
2019-03-16T03:06:42.167Z,0
2019-03-16T03:07:42.732Z,0
2019-03-16T03:08:43.300Z,0
2019-03-16T03:09:43.895Z,0
2019-03-16T03:10:44.434Z,0
2019-03-16T03:11:45.018Z,0
2019-03-16T03:12:45.576Z,0
2019-03-16T03:13:46.137Z,0
2019-03-16T03:14:46.714Z,0
2019-03-16T03:15:47.281Z,0
2019-03-16T03:16:47.851Z,0
2019-03-16T03:17:48.417Z,0
2019-03-16T03:18:49.734Z,0
2019-03-16T03:19:50.548Z,0
2019-03-16T03:20:51.123Z,0
2019-03-16T03:21:51.683Z,0
2019-03-16T03:22:52.253Z,0
2019-03-16T03:23:52.831Z,0
2019-03-16T03:24:53.400Z,0
2019-03-16T03:25:53.984Z,0
2019-03-16T03:26:54.547Z,0
2019-03-16T03:27:55.114Z,0
2019-03-16T03:28:55.695Z,0
2019-03-16T03:29:57.491Z,0
2019-03-16T03:30:57.826Z,0
2019-03-16T03:31:58.398Z,0
2019-03-16T03:32:58.973Z,0
2019-03-16T03:34:02.313Z,0
2019-03-16T03:35:01.322Z,0
2019-03-16T03:36:01.939Z,0
2019-03-16T03:37:02.506Z,0
2019-03-16T03:38:03.087Z,0
2019-03-16T03:39:03.656Z,0
2019-03-16T03:40:04.234Z,0
2019-03-16T03:41:04.802Z,0
2019-03-16T03:42:05.378Z,0
2019-03-16T03:43:05.948Z,0
2019-03-16T03:44:06.502Z,0
2019-03-16T03:45:07.082Z,0
2019-03-16T03:46:07.667Z,0
2019-03-16T03:47:08.241Z,0
2019-03-16T03:48:08.810Z,0
2019-03-16T03:49:09.390Z,0
2019-03-16T03:50:09.958Z,0
2019-03-16T03:51:10.525Z,0
2019-03-16T03:52:11.095Z,0
2019-03-16T03:53:11.665Z,0
2019-03-16T03:54:12.226Z,0
2019-03-16T03:55:12.851Z,0
2019-03-16T03:56:13.362Z,0
2019-03-16T03:57:13.928Z,0
2019-03-16T03:58:14.495Z,0
2019-03-16T03:59:15.062Z,0
2019-03-16T04:00:15.639Z,0
2019-03-16T04:01:16.201Z,0
2019-03-16T04:02:16.779Z,0
2019-03-16T04:03:17.345Z,0
2019-03-16T04:04:17.925Z,0
2019-03-16T04:05:18.504Z,0
2019-03-16T04:06:19.071Z,0
2019-03-16T04:07:20.542Z,0
2019-03-16T04:08:21.151Z,0
2019-03-16T04:09:21.718Z,0
2019-03-16T04:10:22.304Z,0
2019-03-16T04:11:23.132Z,0
2019-03-16T04:12:23.704Z,0
2019-03-16T04:13:24.276Z,0
2019-03-16T04:14:24.845Z,0
2019-03-16T04:15:25.410Z,0
2019-03-16T04:16:25.992Z,0
2019-03-16T04:17:26.593Z,0
2019-03-16T04:18:27.128Z,0
2019-03-16T04:19:27.707Z,0
2019-03-16T04:20:28.275Z,0
2019-03-16T04:21:28.855Z,0
2019-03-16T04:22:29.427Z,0
2019-03-16T04:23:30.004Z,0
2019-03-16T04:24:30.572Z,0
2019-03-16T04:25:31.139Z,0
2019-03-16T04:26:31.708Z,0
2019-03-16T04:27:32.287Z,0
2019-03-16T04:28:32.861Z,0
2019-03-16T04:29:33.422Z,0
2019-03-16T04:30:33.987Z,0
2019-03-16T04:31:34.555Z,0
2019-03-16T04:32:35.122Z,0
2019-03-16T04:33:35.693Z,0
2019-03-16T04:34:36.257Z,0
2019-03-16T04:35:36.823Z,0
2019-03-16T04:36:37.389Z,0
2019-03-16T04:37:37.960Z,0
2019-03-16T04:38:38.537Z,0
2019-03-16T04:39:39.103Z,0
2019-03-16T04:40:39.670Z,0
2019-03-16T04:41:40.241Z,0
2019-03-16T04:42:40.817Z,0
2019-03-16T04:43:41.386Z,0
2019-03-16T04:44:41.954Z,0
2019-03-16T04:45:42.523Z,0
2019-03-16T04:46:43.090Z,0
2019-03-16T04:47:43.659Z,0
2019-03-16T04:48:44.225Z,0
2019-03-16T04:49:44.794Z,0
2019-03-16T04:50:45.361Z,0
2019-03-16T04:51:45.929Z,0
2019-03-16T04:52:46.494Z,0
2019-03-16T04:53:47.076Z,0
2019-03-16T04:54:47.644Z,0
2019-03-16T04:55:48.211Z,0
2019-03-16T04:56:48.792Z,0
2019-03-16T04:57:49.372Z,0
2019-03-16T04:58:51.603Z,0
2019-03-16T04:59:51.500Z,0
2019-03-16T05:00:52.069Z,0
2019-03-16T05:01:52.638Z,0
2019-03-16T05:02:53.204Z,0
2019-03-16T05:03:53.782Z,0
2019-03-16T05:04:54.352Z,0
2019-03-16T05:05:54.930Z,0
2019-03-16T05:06:55.497Z,0
2019-03-16T05:07:56.066Z,0
2019-03-16T05:08:56.631Z,0
2019-03-16T05:09:57.197Z,0
2019-03-16T05:10:57.777Z,0
2019-03-16T05:11:58.343Z,0
2019-03-16T05:12:58.937Z,0
2019-03-16T05:13:59.494Z,0
2019-03-16T05:15:00.063Z,0
2019-03-16T05:16:00.639Z,0
2019-03-16T05:17:01.309Z,0
2019-03-16T05:18:01.876Z,0
2019-03-16T05:19:02.442Z,0
2019-03-16T05:20:03.010Z,0
2019-03-16T05:21:03.578Z,0
2019-03-16T05:22:04.143Z,0
2019-03-16T05:23:04.710Z,0
2019-03-16T05:24:05.277Z,0
2019-03-16T05:25:05.873Z,0
2019-03-16T05:26:06.425Z,0
2019-03-16T05:27:07.006Z,0
2019-03-16T05:28:07.573Z,0
2019-03-16T05:29:08.144Z,0
2019-03-16T05:30:08.724Z,0
2019-03-16T05:31:09.303Z,0
2019-03-16T05:32:09.941Z,0
2019-03-16T05:33:10.434Z,0
2019-03-16T05:34:11.012Z,0
2019-03-16T05:35:11.586Z,0
2019-03-16T05:36:12.159Z,0
2019-03-16T05:37:12.736Z,0
2019-03-16T05:38:13.308Z,0
2019-03-16T05:39:13.875Z,0
2019-03-16T05:40:14.442Z,4
2019-03-16T05:41:15.009Z,4
2019-03-16T05:42:15.580Z,4
2019-03-16T05:43:16.143Z,0
2019-03-16T05:44:16.724Z,0
2019-03-16T05:45:17.297Z,0
2019-03-16T05:46:17.875Z,0
2019-03-16T05:47:18.444Z,4
2019-03-16T05:48:19.013Z,4
2019-03-16T05:49:19.580Z,4
2019-03-16T05:50:20.159Z,4
2019-03-16T05:51:20.730Z,4
2019-03-16T05:52:21.308Z,4
2019-03-16T05:53:21.888Z,4
2019-03-16T05:54:22.457Z,4
2019-03-16T05:55:23.023Z,4
2019-03-16T05:56:23.591Z,4
2019-03-16T05:57:24.159Z,4
2019-03-16T05:58:24.729Z,8
2019-03-16T05:59:25.307Z,4
2019-03-16T06:00:25.874Z,8
2019-03-16T06:01:26.441Z,8
2019-03-16T06:02:27.009Z,8
2019-03-16T06:03:27.579Z,8
2019-03-16T06:04:28.146Z,8
2019-03-16T06:05:28.713Z,8
2019-03-16T06:06:29.282Z,8
2019-03-16T06:07:29.849Z,12
2019-03-16T06:08:30.417Z,12
2019-03-16T06:09:30.986Z,12
2019-03-16T06:10:31.555Z,12
2019-03-16T06:11:32.136Z,16
2019-03-16T06:12:32.704Z,12
2019-03-16T06:13:33.272Z,16
2019-03-16T06:14:33.839Z,16
2019-03-16T06:15:34.408Z,16
2019-03-16T06:16:34.977Z,20
2019-03-16T06:17:35.551Z,20
2019-03-16T06:18:36.117Z,20
2019-03-16T06:19:36.686Z,16
2019-03-16T06:20:37.254Z,20
2019-03-16T06:21:37.822Z,20
2019-03-16T06:22:38.392Z,20
2019-03-16T06:23:38.970Z,24
2019-03-16T06:24:39.542Z,24
2019-03-16T06:25:40.213Z,20
2019-03-16T06:26:40.723Z,24
2019-03-16T06:27:41.293Z,24
2019-03-16T06:28:41.863Z,28
2019-03-16T06:29:42.450Z,28
2019-03-16T06:30:43.086Z,28
2019-03-16T06:31:43.594Z,28
2019-03-16T06:32:44.167Z,28
2019-03-16T06:33:44.734Z,24
2019-03-16T06:34:45.304Z,24
2019-03-16T06:35:45.866Z,28
2019-03-16T06:36:46.438Z,28
2019-03-16T06:37:47.010Z,32
2019-03-16T06:38:47.573Z,32
2019-03-16T06:39:48.144Z,32
2019-03-16T06:40:48.712Z,32
2019-03-16T06:41:49.279Z,32
2019-03-16T06:42:49.847Z,32
2019-03-16T06:43:50.417Z,36
2019-03-16T06:44:50.983Z,40
2019-03-16T06:45:51.551Z,36
2019-03-16T06:46:52.120Z,40
2019-03-16T06:47:54.838Z,36
2019-03-16T06:48:53.268Z,40
2019-03-16T06:49:53.837Z,36
2019-03-16T06:50:54.405Z,40
2019-03-16T06:51:54.986Z,40
2019-03-16T06:52:55.554Z,40
2019-03-16T06:53:56.123Z,48
2019-03-16T06:54:56.691Z,48
2019-03-16T06:55:57.260Z,44
2019-03-16T06:56:57.828Z,48
2019-03-16T06:57:58.395Z,52
2019-03-16T06:58:58.966Z,56
2019-03-16T06:59:59.535Z,60
2019-03-16T07:01:00.118Z,64
2019-03-16T07:02:00.682Z,72
2019-03-16T07:03:01.254Z,76
2019-03-16T07:04:01.820Z,80
2019-03-16T07:05:02.389Z,80
2019-03-16T07:06:02.960Z,76
2019-03-16T07:07:03.529Z,68
2019-03-16T07:08:04.097Z,64
2019-03-16T07:09:04.671Z,72
2019-03-16T07:10:05.246Z,84
2019-03-16T07:11:05.887Z,88
2019-03-16T07:12:06.383Z,80
2019-03-16T07:13:06.954Z,76
2019-03-16T07:14:07.522Z,64
2019-03-16T07:15:08.090Z,64
2019-03-16T07:16:08.660Z,60
2019-03-16T07:17:09.242Z,64
2019-03-16T07:18:09.810Z,68
2019-03-16T07:19:10.378Z,72
2019-03-16T07:20:10.946Z,80
2019-03-16T07:21:11.518Z,100
2019-03-16T07:22:12.087Z,120
2019-03-16T07:23:12.710Z,116
2019-03-16T07:24:13.239Z,108
2019-03-16T07:25:13.797Z,120
2019-03-16T07:26:15.388Z,112
2019-03-16T07:27:25.701Z,104
2019-03-16T07:28:17.495Z,104
2019-03-16T07:29:18.064Z,104
2019-03-16T07:30:18.634Z,92
2019-03-16T07:31:19.215Z,80
2019-03-16T07:32:19.787Z,96
2019-03-16T07:33:20.368Z,100
2019-03-16T07:34:20.935Z,84
2019-03-16T07:35:21.505Z,68
2019-03-16T07:36:22.073Z,64
2019-03-16T07:37:22.642Z,76
2019-03-16T07:38:23.223Z,76
2019-03-16T07:39:23.778Z,56
2019-03-16T07:40:24.346Z,56
2019-03-16T07:41:24.913Z,56
2019-03-16T07:42:25.482Z,60
2019-03-16T07:43:26.139Z,88
2019-03-16T07:44:26.626Z,96
2019-03-16T07:45:27.194Z,92
2019-03-16T07:46:27.763Z,92
2019-03-16T07:47:28.337Z,104
2019-03-16T07:48:28.901Z,104
2019-03-16T07:49:29.471Z,108
2019-03-16T07:50:30.053Z,112
2019-03-16T07:51:30.621Z,128
2019-03-16T07:52:31.192Z,116
2019-03-16T07:53:31.777Z,120
2019-03-16T07:54:32.346Z,132
2019-03-16T07:55:32.914Z,128
2019-03-16T07:56:33.485Z,116
2019-03-16T07:57:40.079Z,120
2019-03-16T07:58:35.622Z,132
2019-03-16T07:59:37.295Z,136
2019-03-16T08:00:37.757Z,148
2019-03-16T08:01:38.328Z,164
2019-03-16T08:02:38.898Z,184
2019-03-16T08:03:39.468Z,156
2019-03-16T08:04:43.302Z,128
2019-03-16T08:05:41.600Z,112
2019-03-16T08:06:42.170Z,100
2019-03-16T08:07:42.739Z,96
2019-03-16T08:08:46.106Z,96
2019-03-16T08:09:43.884Z,104
2019-03-16T08:10:44.466Z,92
2019-03-16T08:11:45.124Z,96
2019-03-16T08:12:45.620Z,104
2019-03-16T08:13:46.205Z,116
2019-03-16T08:14:46.772Z,104
2019-03-16T08:15:47.344Z,112
2019-03-16T08:16:47.914Z,124
2019-03-16T08:17:48.484Z,120
2019-03-16T08:18:49.055Z,108
2019-03-16T08:19:49.626Z,100
2019-03-16T08:20:50.193Z,96
2019-03-16T08:21:50.761Z,96
2019-03-16T08:22:51.331Z,96
2019-03-16T08:23:53.775Z,92
2019-03-16T08:24:53.461Z,96
2019-03-16T08:25:54.032Z,112
2019-03-16T08:26:54.613Z,100
2019-03-16T08:27:55.193Z,92
2019-03-16T08:28:58.839Z,92
2019-03-16T08:29:57.339Z,108
2019-03-16T08:30:57.909Z,96
2019-03-16T08:31:58.475Z,88
2019-03-16T08:32:59.046Z,88
2019-03-16T08:33:59.714Z,88
2019-03-16T08:35:01.006Z,72
2019-03-16T08:36:01.566Z,80
2019-03-16T08:37:02.134Z,72
2019-03-16T08:38:02.704Z,72
2019-03-16T08:39:03.273Z,72
2019-03-16T08:40:03.840Z,76
2019-03-16T08:41:04.408Z,72
2019-03-16T08:42:04.978Z,88
2019-03-16T08:43:05.546Z,84
2019-03-16T08:44:06.115Z,96
2019-03-16T08:45:06.686Z,96
2019-03-16T08:46:07.256Z,104
2019-03-16T08:47:07.826Z,96
2019-03-16T08:48:08.394Z,112
2019-03-16T08:49:08.963Z,108
2019-03-16T08:50:09.535Z,124
2019-03-16T08:51:10.101Z,100
2019-03-16T08:52:10.673Z,108
2019-03-16T08:53:11.246Z,100
2019-03-16T08:54:11.816Z,108
2019-03-16T08:55:12.384Z,124
2019-03-16T08:56:12.956Z,128
2019-03-16T08:57:13.526Z,112
2019-03-16T08:58:14.095Z,100
2019-03-16T08:59:14.664Z,96
2019-03-16T09:00:15.234Z,104
2019-03-16T09:01:15.804Z,124
2019-03-16T09:02:16.386Z,124
2019-03-16T09:03:18.160Z,120
2019-03-16T09:04:18.734Z,124
2019-03-16T09:05:19.302Z,148
2019-03-16T09:06:19.872Z,152
2019-03-16T09:07:20.445Z,124
2019-03-16T09:08:21.012Z,128
2019-03-16T09:09:21.582Z,132
2019-03-16T09:10:22.154Z,132
2019-03-16T09:11:22.725Z,148
2019-03-16T09:12:23.310Z,168
2019-03-16T09:13:23.878Z,196
2019-03-16T09:14:24.447Z,192
2019-03-16T09:15:25.020Z,204
2019-03-16T09:16:25.590Z,220
2019-03-16T09:17:26.157Z,192
2019-03-16T09:18:26.726Z,200
2019-03-16T09:19:27.303Z,188
2019-03-16T09:20:27.867Z,168
2019-03-16T09:21:28.437Z,192
2019-03-16T09:22:29.777Z,196
2019-03-16T09:23:30.354Z,200
2019-03-16T09:24:30.921Z,192
2019-03-16T09:25:31.493Z,208
2019-03-16T09:26:32.067Z,224
2019-03-16T09:27:32.640Z,196
2019-03-16T09:28:33.216Z,192
2019-03-16T09:29:33.786Z,180
2019-03-16T09:30:34.354Z,200
2019-03-16T09:31:34.926Z,216
2019-03-16T09:32:35.498Z,208
2019-03-16T09:33:36.066Z,208
2019-03-16T09:34:36.636Z,220
2019-03-16T09:35:37.208Z,212
2019-03-16T09:36:37.778Z,252
2019-03-16T09:37:38.349Z,252
2019-03-16T09:38:38.921Z,272
2019-03-16T09:39:39.494Z,240
2019-03-16T09:40:40.066Z,232
2019-03-16T09:41:40.635Z,200
2019-03-16T09:42:41.218Z,176
2019-03-16T09:43:41.788Z,188
2019-03-16T09:44:42.357Z,180
2019-03-16T09:45:42.927Z,168
2019-03-16T09:46:43.499Z,160
2019-03-16T09:47:44.069Z,152
2019-03-16T09:48:44.644Z,168
2019-03-16T09:49:45.213Z,172
2019-03-16T09:50:45.784Z,188
2019-03-16T09:51:46.355Z,200
2019-03-16T09:52:46.927Z,184
2019-03-16T09:53:47.499Z,192
2019-03-16T09:54:48.070Z,196
2019-03-16T09:55:48.651Z,204
2019-03-16T09:57:00.586Z,200
2019-03-16T09:57:50.788Z,216
2019-03-16T09:58:51.360Z,228
2019-03-16T09:59:51.929Z,228
2019-03-16T10:00:52.499Z,232
2019-03-16T10:01:53.070Z,228
2019-03-16T10:02:53.642Z,192
2019-03-16T10:03:54.212Z,180
2019-03-16T10:04:54.783Z,180
2019-03-16T10:05:55.353Z,200
2019-03-16T10:06:55.924Z,184
2019-03-16T10:07:56.508Z,184
2019-03-16T10:08:57.075Z,192
2019-03-16T10:09:57.647Z,196
2019-03-16T10:10:58.219Z,200
2019-03-16T10:11:58.786Z,180
2019-03-16T10:12:59.357Z,164
2019-03-16T10:14:00.006Z,156
2019-03-16T10:15:00.511Z,144
2019-03-16T10:16:01.082Z,160
2019-03-16T10:17:01.652Z,180
2019-03-16T10:18:02.227Z,172
2019-03-16T10:19:02.808Z,160
2019-03-16T10:20:03.379Z,164
2019-03-16T10:21:03.948Z,160
2019-03-16T10:22:04.520Z,160
2019-03-16T10:23:05.088Z,148
2019-03-16T10:24:05.658Z,152
2019-03-16T10:25:06.230Z,152
2019-03-16T10:26:06.804Z,148
2019-03-16T10:27:07.372Z,140
2019-03-16T10:28:07.989Z,152
2019-03-16T10:29:08.524Z,144
2019-03-16T10:30:09.093Z,140
2019-03-16T10:31:09.667Z,132
2019-03-16T10:32:10.235Z,128
2019-03-16T10:33:11.278Z,120
2019-03-16T10:34:11.397Z,120
2019-03-16T10:35:11.969Z,116
2019-03-16T10:36:12.537Z,116
2019-03-16T10:37:13.113Z,116
2019-03-16T10:38:13.685Z,104
2019-03-16T10:39:14.251Z,108
2019-03-16T10:40:14.822Z,112
2019-03-16T10:41:15.395Z,112
2019-03-16T10:42:15.967Z,104
2019-03-16T10:43:16.539Z,112
2019-03-16T10:44:17.135Z,104
2019-03-16T10:45:17.706Z,108
2019-03-16T10:46:18.288Z,108
2019-03-16T10:47:18.853Z,108
2019-03-16T10:48:19.417Z,100
2019-03-16T10:49:19.987Z,104
2019-03-16T10:50:20.556Z,100
2019-03-16T10:51:21.129Z,104
2019-03-16T10:52:21.698Z,112
2019-03-16T10:53:22.271Z,108
2019-03-16T10:54:22.850Z,104
2019-03-16T10:55:23.422Z,108
2019-03-16T10:56:23.993Z,116
2019-03-16T10:57:24.564Z,124
2019-03-16T10:58:25.147Z,112
2019-03-16T10:59:25.720Z,108
2019-03-16T11:00:26.291Z,104
2019-03-16T11:01:26.872Z,116
2019-03-16T11:02:27.434Z,112
2019-03-16T11:03:28.005Z,104
2019-03-16T11:04:28.576Z,112
2019-03-16T11:05:29.146Z,112
2019-03-16T11:06:29.716Z,112
2019-03-16T11:07:30.285Z,108
2019-03-16T11:08:30.855Z,104
2019-03-16T11:09:31.437Z,112
2019-03-16T11:10:31.999Z,120
2019-03-16T11:11:32.571Z,112
2019-03-16T11:12:33.140Z,108
2019-03-16T11:13:33.743Z,108
2019-03-16T11:14:34.294Z,112
2019-03-16T11:15:34.863Z,112
2019-03-16T11:16:35.432Z,116
2019-03-16T11:17:36.003Z,132
2019-03-16T11:18:36.572Z,152
2019-03-16T11:19:37.145Z,204
2019-03-16T11:20:37.716Z,332
2019-03-16T11:21:38.289Z,412
2019-03-16T11:22:38.871Z,572
2019-03-16T11:23:39.448Z,668
2019-03-16T11:24:40.016Z,680
2019-03-16T11:25:40.587Z,648
2019-03-16T11:26:41.159Z,612
2019-03-16T11:27:41.745Z,576
2019-03-16T11:28:42.316Z,456
2019-03-16T11:29:42.903Z,324
2019-03-16T11:30:43.475Z,288
2019-03-16T11:31:44.049Z,340
2019-03-16T11:32:44.620Z,340
2019-03-16T11:33:48.155Z,368
2019-03-16T11:34:45.783Z,372
2019-03-16T11:35:46.355Z,360
2019-03-16T11:36:46.927Z,348
2019-03-16T11:37:47.498Z,340
2019-03-16T11:38:48.070Z,352
2019-03-16T11:39:48.641Z,340
2019-03-16T11:40:49.215Z,288
2019-03-16T11:41:49.787Z,260
2019-03-16T11:42:50.372Z,248
2019-03-16T11:43:50.944Z,244
2019-03-16T11:44:51.514Z,220
2019-03-16T11:45:52.084Z,200
2019-03-16T11:46:52.655Z,196
2019-03-16T11:47:53.228Z,196
2019-03-16T11:48:53.798Z,208
2019-03-16T11:49:54.372Z,192
2019-03-16T11:50:54.940Z,184
2019-03-16T11:51:55.510Z,184
2019-03-16T11:52:56.083Z,184
2019-03-16T11:53:56.650Z,192
2019-03-16T11:54:57.220Z,204
2019-03-16T11:55:57.793Z,196
2019-03-16T11:56:58.366Z,200
2019-03-16T11:57:58.936Z,188
2019-03-16T11:58:59.508Z,180
2019-03-16T12:00:00.077Z,188
2019-03-16T12:01:00.647Z,216
2019-03-16T12:02:05.543Z,228
2019-03-16T12:03:02.784Z,220
2019-03-16T12:04:03.365Z,208
2019-03-16T12:05:03.935Z,196
2019-03-16T12:06:04.506Z,192
2019-03-16T12:07:05.077Z,192
2019-03-16T12:08:05.660Z,184
2019-03-16T12:09:06.244Z,188
2019-03-16T12:10:06.817Z,196
2019-03-16T12:11:07.400Z,180
2019-03-16T12:12:07.992Z,184
2019-03-16T12:13:17.379Z,212
2019-03-16T12:14:09.135Z,204
2019-03-16T12:15:09.702Z,196
2019-03-16T12:16:10.272Z,192
2019-03-16T12:17:10.876Z,184
2019-03-16T12:18:11.415Z,192
2019-03-16T12:19:11.989Z,200
2019-03-16T12:20:12.569Z,196
2019-03-16T12:21:13.141Z,204
2019-03-16T12:22:13.723Z,216
2019-03-16T12:23:14.294Z,204
2019-03-16T12:24:14.865Z,220
2019-03-16T12:25:15.439Z,244
2019-03-16T12:26:16.012Z,260
2019-03-16T12:27:16.580Z,264
2019-03-16T12:28:17.151Z,256
2019-03-16T12:29:17.723Z,232
2019-03-16T12:30:18.304Z,232
2019-03-16T12:31:18.876Z,232
2019-03-16T12:32:19.448Z,256
2019-03-16T12:33:20.022Z,248
2019-03-16T12:34:20.592Z,244
2019-03-16T12:35:21.167Z,236
2019-03-16T12:36:21.734Z,228
2019-03-16T12:37:22.306Z,244
2019-03-16T12:38:22.879Z,260
2019-03-16T12:39:23.450Z,244
2019-03-16T12:40:24.021Z,224
2019-03-16T12:41:24.601Z,228
2019-03-16T12:42:25.164Z,208
2019-03-16T12:43:25.734Z,208
2019-03-16T12:44:26.317Z,224
2019-03-16T12:45:26.887Z,220
2019-03-16T12:46:27.458Z,252
2019-03-16T12:47:30.992Z,224
2019-03-16T12:48:29.598Z,232
2019-03-16T12:49:30.168Z,244
2019-03-16T12:50:30.746Z,264
2019-03-16T12:51:31.314Z,284
2019-03-16T12:52:31.885Z,316
2019-03-16T12:53:32.455Z,328
2019-03-16T12:54:33.037Z,328
2019-03-16T12:55:33.613Z,272
2019-03-16T12:56:34.185Z,252
2019-03-16T12:57:34.758Z,240
2019-03-16T12:58:35.329Z,284
2019-03-16T12:59:46.312Z,296
2019-03-16T13:00:37.469Z,296
2019-03-16T13:01:38.046Z,320
2019-03-16T13:02:38.615Z,300
2019-03-16T13:03:39.185Z,248
2019-03-16T13:04:39.756Z,236
2019-03-16T13:05:40.331Z,252
2019-03-16T13:06:40.903Z,260
2019-03-16T13:07:41.487Z,312
2019-03-16T13:08:42.059Z,300
2019-03-16T13:09:42.700Z,260
2019-03-16T13:10:43.254Z,260
2019-03-16T13:11:43.826Z,248
2019-03-16T13:12:44.396Z,244
2019-03-16T13:13:44.969Z,232
2019-03-16T13:14:45.542Z,224
2019-03-16T13:15:46.117Z,232
2019-03-16T13:16:46.686Z,228
2019-03-16T13:17:47.256Z,212
2019-03-16T13:18:47.826Z,212
2019-03-16T13:19:48.397Z,200
2019-03-16T13:20:48.969Z,188
2019-03-16T13:21:49.542Z,184
2019-03-16T13:22:50.115Z,188
2019-03-16T13:23:50.684Z,188
2019-03-16T13:24:51.254Z,196
2019-03-16T13:25:51.824Z,224
2019-03-16T13:26:52.403Z,204
2019-03-16T13:27:52.985Z,216
2019-03-16T13:28:53.552Z,200
2019-03-16T13:29:58.844Z,188
2019-03-16T13:30:55.690Z,176
2019-03-16T13:31:56.262Z,176
2019-03-16T13:32:56.846Z,168
2019-03-16T13:33:57.405Z,152
2019-03-16T13:34:57.977Z,140
2019-03-16T13:35:58.560Z,140
2019-03-16T13:36:59.134Z,136
2019-03-16T13:37:59.705Z,132
2019-03-16T13:39:00.287Z,136
2019-03-16T13:40:00.858Z,128
2019-03-16T13:41:01.441Z,120
2019-03-16T13:42:02.012Z,120
2019-03-16T13:43:02.583Z,120
2019-03-16T13:44:03.156Z,112
2019-03-16T13:45:03.737Z,104
2019-03-16T13:46:04.305Z,96
2019-03-16T13:47:04.876Z,96
2019-03-16T13:48:05.446Z,100
2019-03-16T13:49:06.029Z,92
2019-03-16T13:50:06.602Z,92
2019-03-16T13:51:07.244Z,88
2019-03-16T13:52:07.822Z,84
2019-03-16T13:53:08.602Z,84
2019-03-16T13:54:09.173Z,88
2019-03-16T13:55:09.742Z,88
2019-03-16T13:56:10.314Z,96
2019-03-16T13:57:10.882Z,92
2019-03-16T13:58:11.454Z,100
2019-03-16T13:59:12.037Z,124
2019-03-16T14:00:12.815Z,116
2019-03-16T14:01:13.381Z,112
2019-03-16T14:02:13.950Z,116
2019-03-16T14:03:14.743Z,108
2019-03-16T14:04:15.318Z,116
2019-03-16T14:05:15.886Z,112
2019-03-16T14:06:16.688Z,112
2019-03-16T14:07:17.274Z,112
2019-03-16T14:08:17.842Z,112
2019-03-16T14:09:18.414Z,116
2019-03-16T14:10:18.985Z,112
2019-03-16T14:11:19.555Z,108
2019-03-16T14:12:20.125Z,108
2019-03-16T14:13:20.922Z,104
2019-03-16T14:14:21.491Z,92
2019-03-16T14:15:22.064Z,88
2019-03-16T14:16:22.631Z,104
2019-03-16T14:17:23.294Z,108
2019-03-16T14:18:23.869Z,128
2019-03-16T14:19:24.437Z,136
2019-03-16T14:20:25.090Z,132
2019-03-16T14:21:25.836Z,140
2019-03-16T14:22:26.419Z,148
2019-03-16T14:23:26.988Z,156
2019-03-16T14:24:27.559Z,144